Nordic Philip — 5BZH2 — position and weather

sailwx.info

Track history (hours):
 
Tides and Currents Weather Stations Pressure Air Temp Water Temp Dewpoint Dewpoint Depression Visibility Wind Speed Wind Dir Waves Ship Positions

Nordic Philip

Last reported at 2016-Jul-30 07:23 UTC. Time now 2016-Jul-30 20:41 UTC.
Position N 55°41' E 015°34'.

Length 151 m; draft 6.8 m.

Type: Ship (hazmat cat A). MMSI: 212018000.

Date/timePositionNaut miles runAvg speedWind from/ knotsBaromVisibWave heightAir tempDewpointWater temp
2016-Jul-30 07:23N 55°41' E 015°34'1315.7
2016-Jul-30 06:33N 55°35' E 015°14'1615.6
2016-Jul-30 05:33N 55°28' E 014°50'1615.8
2016-Jul-30 04:33N 55°17' E 014°30'1616.0
2016-Jul-30 03:33N 55°05' E 014°12'1515.5
2016-Jul-30 02:33N 54°58' E 013°48'1615.7
2016-Jul-30 01:33N 54°52' E 013°22'1615.8
2016-Jul-30 00:33N 54°47' E 012°56'1615.9
2016-Jul-29 23:33N 54°40' E 012°32'1615.3
2016-Jul-29 22:30N 54°27' E 012°14'1414.6
2016-Jul-29 21:33N 54°25' E 011°51'1615.6
2016-Jul-29 20:34N 54°30' E 011°26'1515.4
2016-Jul-29 19:33N 54°35' E 011°00'1615.7
2016-Jul-29 18:33N 54°33' E 010°34'1313.1
2016-Jul-29 17:33N 54°26' E 010°14'5 5.4
2016-Jul-29 16:33N 54°22' E 010°08'6 6.3
2016-Jul-29 15:33N 54°21' E 009°58'8 7.5
2016-Jul-29 14:33N 54°20' E 009°45'15 6.4
2016-Jul-29 12:12N 54°10' E 009°26'3 1.2
2016-Jul-29 09:33N 54°09' E 009°21'8 8.1
2016-Jul-29 08:34N 54°01' E 009°18'8 8.2
2016-Jul-29 07:34N 53°54' E 009°10'2 2.4
2016-Jul-29 06:34N 53°53' E 009°06'9 9.0
2016-Jul-29 05:33N 53°50' E 008°52'1414.2
2016-Jul-29 04:33N 53°58' E 008°31'1615.6
2016-Jul-29 03:33N 53°59' E 008°05'8 7.9
2016-Jul-29 02:33N 53°51' E 008°01'1413.6
2016-Jul-29 01:33N 53°43' E 008°18'11 3.5
2016-Jul-28 22:30N 53°35' E 008°32'0 0.0
2016-Jul-28 19:33N 53°35' E 008°32'0 0.0
2016-Jul-28 18:33N 53°35' E 008°32'0 0.0
2016-Jul-28 13:25N 53°35' E 008°32'5 5.7
2016-Jul-28 12:29N 53°39' E 008°25'1415.6
2016-Jul-28 11:33N 53°49' E 008°07'1110.9
2016-Jul-28 10:33N 53°58' E 007°57'1110.6
2016-Jul-28 09:33N 54°00' E 008°15'1717.3
2016-Jul-28 08:33N 53°54' E 008°42'1414.0
2016-Jul-28 07:33N 53°53' E 009°05'1111.4
2016-Jul-28 06:34N 53°48' E 009°23'1312.8
2016-Jul-28 05:34N 53°37' E 009°34'1111.0
2016-Jul-28 04:33N 53°33' E 009°51'4 3.6
2016-Jul-28 03:27N 53°30' E 009°56'0 0.0
2016-Jul-28 02:33N 53°30' E 009°56'0 0.0
2016-Jul-28 01:33N 53°30' E 009°56'0 0.0
2016-Jul-28 00:33N 53°30' E 009°56'0 0.0
2016-Jul-27 23:33N 53°30' E 009°56'0 0.0
2016-Jul-27 22:33N 53°30' E 009°56'0 0.0
2016-Jul-27 21:33N 53°30' E 009°56'0 0.0
2016-Jul-27 20:33N 53°30' E 009°56'0 0.0
2016-Jul-27 19:33N 53°30' E 009°56'0 0.0
2016-Jul-27 18:33N 53°30' E 009°56'0 0.0
2016-Jul-27 17:33N 53°30' E 009°56'0 0.0
2016-Jul-27 16:33N 53°30' E 009°56'0 0.0
2016-Jul-27 15:33N 53°30' E 009°56'2 1.9
2016-Jul-27 14:34N 53°32' E 009°57'0 0.1
2016-Jul-27 13:32N 53°32' E 009°57'1 0.6
2016-Jul-27 12:33N 53°32' E 009°56'1 0.7
2016-Jul-27 11:31N 53°32' E 009°55'0 0.0
2016-Jul-27 10:31N 53°32' E 009°55'0 0.0
2016-Jul-27 09:31N 53°32' E 009°55'0 0.0
2016-Jul-27 08:31N 53°32' E 009°55'0 0.0
2016-Jul-27 07:31N 53°32' E 009°55'0 0.0
2016-Jul-27 06:31N 53°32' E 009°55'0 0.0
2016-Jul-27 05:31N 53°32' E 009°55'0 0.0
2016-Jul-27 04:33N 53°32' E 009°55'1 0.8
2016-Jul-27 03:33N 53°32' E 009°55'0 0.0
2016-Jul-27 02:33N 53°32' E 009°55'0 0.0
2016-Jul-27 01:33N 53°32' E 009°55'0 0.0
2016-Jul-27 00:33N 53°32' E 009°55'0 0.1
2016-Jul-26 23:33N 53°32' E 009°55'5 4.8
2016-Jul-26 22:34N 53°33' E 009°48'1111.4
2016-Jul-26 21:33N 53°39' E 009°31'1313.5
2016-Jul-26 20:33N 53°51' E 009°20'7 7.0
2016-Jul-26 19:33N 53°54' E 009°09'2 2.3
2016-Jul-26 18:33N 53°55' E 009°12'8 8.1
2016-Jul-26 17:33N 54°02' E 009°18'7 6.8
2016-Jul-26 16:32N 54°09' E 009°22'14 5.8
2016-Jul-26 14:08N 54°18' E 009°41'4 6.6
2016-Jul-26 13:33N 54°21' E 009°45'5 4.7
2016-Jul-26 12:33N 54°21' E 009°53'6 6.0
2016-Jul-26 11:33N 54°22' E 010°03'3 3.1
2016-Jul-26 10:33N 54°22' E 010°09'3 3.0
2016-Jul-26 09:33N 54°24' E 010°12'1010.0
2016-Jul-26 08:33N 54°31' E 010°24'1616.6
2016-Jul-26 07:33N 54°35' E 010°52'1717.2
2016-Jul-26 06:33N 54°34' E 011°21'1817.5
2016-Jul-26 05:33N 54°26' E 011°48'1514.8
2016-Jul-26 04:33N 54°31' E 012°13'1716.4
2016-Jul-26 03:30N 54°43' E 012°34'1817.2
2016-Jul-26 02:27N 54°51' E 013°02'1618.1
2016-Jul-26 01:33N 54°57' E 013°28'1818.0
2016-Jul-26 00:33N 55°03' E 013°58'1717.4
2016-Jul-25 23:33N 55°16' E 014°19'1818.1
2016-Jul-25 22:33N 55°29' E 014°41'1818.2
2016-Jul-25 21:33N 55°37' E 015°09'2018.1
2016-Jul-25 20:27N 55°48' E 015°39'2418.2
2016-Jul-25 19:08N 56°00' E 016°16'10617.5
2016-Jul-25 13:05N 57°34' E 017°45'2818.1
2016-Jul-25 11:33N 57°58' E 018°12'3918.0
2016-Jul-25 09:25N 58°32' E 018°47'1617.4
2016-Jul-25 08:28N 58°45' E 019°05'7615.0
2016-Jul-25 03:27N 60°00' E 019°19'  
Track history (hours):
 
Tides and Currents Weather Stations Pressure Air Temp Water Temp Dewpoint Dewpoint Depression Visibility Wind Speed Wind Dir Waves Ship Positions

Nordic Philip

Last reported at 2016-Jul-30 07:23 UTC. Time now 2016-Jul-30 20:41 UTC.
Position N 55°41' E 015°34'.

Length 151 m; draft 6.8 m.

Type: Ship (hazmat cat A). MMSI: 212018000.

Date/timePositionNaut miles runAvg speedWind from/ knotsBaromVisibWave heightAir tempDewpointWater temp
2016-Jul-30 07:23N 55°41' E 015°34'1315.7
2016-Jul-30 06:33N 55°35' E 015°14'1615.6
2016-Jul-30 05:33N 55°28' E 014°50'1615.8
2016-Jul-30 04:33N 55°17' E 014°30'1616.0
2016-Jul-30 03:33N 55°05' E 014°12'1515.5
2016-Jul-30 02:33N 54°58' E 013°48'1615.7
2016-Jul-30 01:33N 54°52' E 013°22'1615.8
2016-Jul-30 00:33N 54°47' E 012°56'1615.9
2016-Jul-29 23:33N 54°40' E 012°32'1615.3
2016-Jul-29 22:30N 54°27' E 012°14'1414.6
2016-Jul-29 21:33N 54°25' E 011°51'1615.6
2016-Jul-29 20:34N 54°30' E 011°26'1515.4
2016-Jul-29 19:33N 54°35' E 011°00'1615.7
2016-Jul-29 18:33N 54°33' E 010°34'1313.1
2016-Jul-29 17:33N 54°26' E 010°14'5 5.4
2016-Jul-29 16:33N 54°22' E 010°08'6 6.3
2016-Jul-29 15:33N 54°21' E 009°58'8 7.5
2016-Jul-29 14:33N 54°20' E 009°45'15 6.4
2016-Jul-29 12:12N 54°10' E 009°26'3 1.2
2016-Jul-29 09:33N 54°09' E 009°21'8 8.1
2016-Jul-29 08:34N 54°01' E 009°18'8 8.2
2016-Jul-29 07:34N 53°54' E 009°10'2 2.4
2016-Jul-29 06:34N 53°53' E 009°06'9 9.0
2016-Jul-29 05:33N 53°50' E 008°52'1414.2
2016-Jul-29 04:33N 53°58' E 008°31'1615.6
2016-Jul-29 03:33N 53°59' E 008°05'8 7.9
2016-Jul-29 02:33N 53°51' E 008°01'1413.6
2016-Jul-29 01:33N 53°43' E 008°18'11 3.5
2016-Jul-28 22:30N 53°35' E 008°32'0 0.0
2016-Jul-28 19:33N 53°35' E 008°32'0 0.0
2016-Jul-28 18:33N 53°35' E 008°32'0 0.0
2016-Jul-28 13:25N 53°35' E 008°32'5 5.7
2016-Jul-28 12:29N 53°39' E 008°25'1415.6
2016-Jul-28 11:33N 53°49' E 008°07'1110.9
2016-Jul-28 10:33N 53°58' E 007°57'1110.6
2016-Jul-28 09:33N 54°00' E 008°15'1717.3
2016-Jul-28 08:33N 53°54' E 008°42'1414.0
2016-Jul-28 07:33N 53°53' E 009°05'1111.4
2016-Jul-28 06:34N 53°48' E 009°23'1312.8
2016-Jul-28 05:34N 53°37' E 009°34'1111.0
2016-Jul-28 04:33N 53°33' E 009°51'4 3.6
2016-Jul-28 03:27N 53°30' E 009°56'0 0.0
2016-Jul-28 02:33N 53°30' E 009°56'0 0.0
2016-Jul-28 01:33N 53°30' E 009°56'0 0.0
2016-Jul-28 00:33N 53°30' E 009°56'0 0.0
2016-Jul-27 23:33N 53°30' E 009°56'0 0.0
2016-Jul-27 22:33N 53°30' E 009°56'0 0.0
2016-Jul-27 21:33N 53°30' E 009°56'0 0.0
2016-Jul-27 20:33N 53°30' E 009°56'0 0.0
2016-Jul-27 19:33N 53°30' E 009°56'0 0.0
2016-Jul-27 18:33N 53°30' E 009°56'0 0.0
2016-Jul-27 17:33N 53°30' E 009°56'0 0.0
2016-Jul-27 16:33N 53°30' E 009°56'0 0.0
2016-Jul-27 15:33N 53°30' E 009°56'2 1.9
2016-Jul-27 14:34N 53°32' E 009°57'0 0.1
2016-Jul-27 13:32N 53°32' E 009°57'1 0.6
2016-Jul-27 12:33N 53°32' E 009°56'1 0.7
2016-Jul-27 11:31N 53°32' E 009°55'0 0.0
2016-Jul-27 10:31N 53°32' E 009°55'0 0.0
2016-Jul-27 09:31N 53°32' E 009°55'0 0.0
2016-Jul-27 08:31N 53°32' E 009°55'0 0.0
2016-Jul-27 07:31N 53°32' E 009°55'0 0.0
2016-Jul-27 06:31N 53°32' E 009°55'0 0.0
2016-Jul-27 05:31N 53°32' E 009°55'0 0.0
2016-Jul-27 04:33N 53°32' E 009°55'1 0.8
2016-Jul-27 03:33N 53°32' E 009°55'0 0.0
2016-Jul-27 02:33N 53°32' E 009°55'0 0.0
2016-Jul-27 01:33N 53°32' E 009°55'0 0.0
2016-Jul-27 00:33N 53°32' E 009°55'0 0.1
2016-Jul-26 23:33N 53°32' E 009°55'5 4.8
2016-Jul-26 22:34N 53°33' E 009°48'1111.4
2016-Jul-26 21:33N 53°39' E 009°31'1313.5
2016-Jul-26 20:33N 53°51' E 009°20'7 7.0
2016-Jul-26 19:33N 53°54' E 009°09'2 2.3
2016-Jul-26 18:33N 53°55' E 009°12'8 8.1
2016-Jul-26 17:33N 54°02' E 009°18'7 6.8
2016-Jul-26 16:32N 54°09' E 009°22'14 5.8
2016-Jul-26 14:08N 54°18' E 009°41'4 6.6
2016-Jul-26 13:33N 54°21' E 009°45'5 4.7
2016-Jul-26 12:33N 54°21' E 009°53'6 6.0
2016-Jul-26 11:33N 54°22' E 010°03'3 3.1
2016-Jul-26 10:33N 54°22' E 010°09'3 3.0
2016-Jul-26 09:33N 54°24' E 010°12'1010.0
2016-Jul-26 08:33N 54°31' E 010°24'1616.6
2016-Jul-26 07:33N 54°35' E 010°52'1717.2
2016-Jul-26 06:33N 54°34' E 011°21'1817.5
2016-Jul-26 05:33N 54°26' E 011°48'1514.8
2016-Jul-26 04:33N 54°31' E 012°13'1716.4
2016-Jul-26 03:30N 54°43' E 012°34'1817.2
2016-Jul-26 02:27N 54°51' E 013°02'1618.1
2016-Jul-26 01:33N 54°57' E 013°28'1818.0
2016-Jul-26 00:33N 55°03' E 013°58'1717.4
2016-Jul-25 23:33N 55°16' E 014°19'1818.1
2016-Jul-25 22:33N 55°29' E 014°41'1818.2
2016-Jul-25 21:33N 55°37' E 015°09'2018.1
2016-Jul-25 20:27N 55°48' E 015°39'2418.2
2016-Jul-25 19:08N 56°00' E 016°16'10617.5
2016-Jul-25 13:05N 57°34' E 017°45'2818.1
2016-Jul-25 11:33N 57°58' E 018°12'3918.0
2016-Jul-25 09:25N 58°32' E 018°47'1617.4
2016-Jul-25 08:28N 58°45' E 019°05'7615.0
2016-Jul-25 03:27N 60°00' E 019°19'  

Dump ship's entire track history